sensor_id;sensor_type;location;lat;lon;timestamp;P1;durP1;ratioP1;P2;durP2;ratioP2
58926;SDS011;44712;52.530;9.760;2022-09-24T00:01:26;14.70;;;11.03;;
58926;SDS011;44712;52.530;9.760;2022-09-24T00:04:05;12.53;;;10.10;;
58926;SDS011;44712;52.530;9.760;2022-09-24T00:06:34;12.90;;;10.68;;
58926;SDS011;44712;52.530;9.760;2022-09-24T00:09:03;12.10;;;10.30;;
58926;SDS011;44712;52.530;9.760;2022-09-24T00:11:30;12.98;;;10.48;;
58926;SDS011;44712;52.530;9.760;2022-09-24T00:13:58;12.88;;;10.15;;
58926;SDS011;44712;52.530;9.760;2022-09-24T00:16:26;11.93;;;10.00;;
58926;SDS011;44712;52.530;9.760;2022-09-24T00:18:56;10.50;;;9.40;;
58926;SDS011;44712;52.530;9.760;2022-09-24T00:21:25;12.07;;;10.88;;
58926;SDS011;44712;52.530;9.760;2022-09-24T00:23:55;12.95;;;10.48;;
58926;SDS011;44712;52.530;9.760;2022-09-24T00:26:23;14.25;;;11.27;;
58926;SDS011;44712;52.530;9.760;2022-09-24T00:29:10;11.55;;;9.60;;
58926;SDS011;44712;52.530;9.760;2022-09-24T00:31:39;11.60;;;10.27;;
58926;SDS011;44712;52.530;9.760;2022-09-24T00:34:08;11.52;;;9.98;;
58926;SDS011;44712;52.530;9.760;2022-09-24T00:36:36;12.00;;;10.40;;
58926;SDS011;44712;52.530;9.760;2022-09-24T00:39:03;11.65;;;10.27;;
58926;SDS011;44712;52.530;9.760;2022-09-24T00:41:33;13.35;;;11.02;;
58926;SDS011;44712;52.530;9.760;2022-09-24T00:47:10;11.07;;;9.70;;
58926;SDS011;44712;52.530;9.760;2022-09-24T00:52:50;11.43;;;10.23;;
58926;SDS011;44712;52.530;9.760;2022-09-24T00:55:19;11.00;;;9.80;;
58926;SDS011;44712;52.530;9.760;2022-09-24T00:57:50;13.95;;;11.05;;
58926;SDS011;44712;52.530;9.760;2022-09-24T01:00:21;13.00;;;10.38;;
58926;SDS011;44712;52.530;9.760;2022-09-24T01:02:49;11.43;;;9.95;;
58926;SDS011;44712;52.530;9.760;2022-09-24T01:05:27;13.63;;;10.25;;
58926;SDS011;44712;52.530;9.760;2022-09-24T01:07:54;14.45;;;11.05;;
58926;SDS011;44712;52.530;9.760;2022-09-24T01:10:24;12.43;;;10.20;;
58926;SDS011;44712;52.530;9.760;2022-09-24T01:16:56;11.40;;;9.40;;
58926;SDS011;44712;52.530;9.760;2022-09-24T01:21:38;10.90;;;9.77;;
58926;SDS011;44712;52.530;9.760;2022-09-24T01:27:25;11.63;;;9.95;;
58926;SDS011;44712;52.530;9.760;2022-09-24T01:30:07;12.55;;;10.55;;
58926;SDS011;44712;52.530;9.760;2022-09-24T01:35:47;10.45;;;9.35;;
58926;SDS011;44712;52.530;9.760;2022-09-24T01:38:20;14.32;;;10.32;;
58926;SDS011;44712;52.530;9.760;2022-09-24T01:40:54;10.45;;;9.32;;
58926;SDS011;44712;52.530;9.760;2022-09-24T01:43:24;12.30;;;10.07;;
58926;SDS011;44712;52.530;9.760;2022-09-24T01:45:56;10.48;;;9.38;;
58926;SDS011;44712;52.530;9.760;2022-09-24T01:48:26;10.50;;;9.50;;
58926;SDS011;44712;52.530;9.760;2022-09-24T01:50:54;10.57;;;9.50;;
58926;SDS011;44712;52.530;9.760;2022-09-24T01:53:26;13.23;;;10.88;;
58926;SDS011;44712;52.530;9.760;2022-09-24T01:56:01;14.45;;;11.13;;
58926;SDS011;44712;52.530;9.760;2022-09-24T01:59:21;12.65;;;10.88;;
58926;SDS011;44712;52.530;9.760;2022-09-24T02:01:29;11.73;;;10.50;;
58926;SDS011;44712;52.530;9.760;2022-09-24T02:04:03;13.55;;;10.68;;
58926;SDS011;44712;52.530;9.760;2022-09-24T02:06:37;14.05;;;10.05;;
58926;SDS011;44712;52.530;9.760;2022-09-24T02:11:56;11.60;;;9.73;;
58926;SDS011;44712;52.530;9.760;2022-09-24T02:14:27;10.98;;;9.52;;
58926;SDS011;44712;52.530;9.760;2022-09-24T02:16:57;11.82;;;9.80;;
58926;SDS011;44712;52.530;9.760;2022-09-24T02:19:25;12.23;;;10.00;;
58926;SDS011;44712;52.530;9.760;2022-09-24T02:21:54;13.15;;;10.68;;
58926;SDS011;44712;52.530;9.760;2022-09-24T02:24:29;11.90;;;10.70;;
58926;SDS011;44712;52.530;9.760;2022-09-24T02:27:00;12.30;;;11.02;;
58926;SDS011;44712;52.530;9.760;2022-09-24T02:29:27;11.35;;;10.15;;
58926;SDS011;44712;52.530;9.760;2022-09-24T02:31:54;12.80;;;10.68;;
58926;SDS011;44712;52.530;9.760;2022-09-24T02:34:26;14.93;;;11.35;;
58926;SDS011;44712;52.530;9.760;2022-09-24T02:36:59;14.38;;;10.93;;
58926;SDS011;44712;52.530;9.760;2022-09-24T02:39:31;13.70;;;11.55;;
58926;SDS011;44712;52.530;9.760;2022-09-24T02:41:58;11.68;;;10.48;;
58926;SDS011;44712;52.530;9.760;2022-09-24T02:44:25;14.43;;;11.13;;
58926;SDS011;44712;52.530;9.760;2022-09-24T02:46:52;13.63;;;11.25;;
58926;SDS011;44712;52.530;9.760;2022-09-24T02:49:19;12.23;;;10.93;;
58926;SDS011;44712;52.530;9.760;2022-09-24T02:51:45;11.38;;;10.32;;
58926;SDS011;44712;52.530;9.760;2022-09-24T02:54:12;11.18;;;10.02;;
58926;SDS011;44712;52.530;9.760;2022-09-24T02:56:39;12.13;;;9.73;;
58926;SDS011;44712;52.530;9.760;2022-09-24T02:59:06;15.70;;;11.88;;
58926;SDS011;44712;52.530;9.760;2022-09-24T03:01:33;12.82;;;10.93;;
58926;SDS011;44712;52.530;9.760;2022-09-24T03:04:01;11.68;;;10.43;;
58926;SDS011;44712;52.530;9.760;2022-09-24T03:06:27;11.23;;;10.13;;
58926;SDS011;44712;52.530;9.760;2022-09-24T03:08:55;11.80;;;10.27;;
58926;SDS011;44712;52.530;9.760;2022-09-24T03:11:22;12.27;;;9.55;;
58926;SDS011;44712;52.530;9.760;2022-09-24T03:13:49;13.68;;;11.45;;
58926;SDS011;44712;52.530;9.760;2022-09-24T03:16:17;13.80;;;10.55;;
58926;SDS011;44712;52.530;9.760;2022-09-24T03:18:45;12.02;;;10.63;;
58926;SDS011;44712;52.530;9.760;2022-09-24T03:21:12;12.57;;;11.18;;
58926;SDS011;44712;52.530;9.760;2022-09-24T03:23:40;11.80;;;10.32;;
58926;SDS011;44712;52.530;9.760;2022-09-24T03:26:07;13.18;;;11.23;;
58926;SDS011;44712;52.530;9.760;2022-09-24T03:28:34;12.95;;;11.55;;
58926;SDS011;44712;52.530;9.760;2022-09-24T03:31:01;12.55;;;10.98;;
58926;SDS011;44712;52.530;9.760;2022-09-24T03:36:15;11.73;;;10.10;;
58926;SDS011;44712;52.530;9.760;2022-09-24T03:38:43;12.75;;;11.00;;
58926;SDS011;44712;52.530;9.760;2022-09-24T03:41:11;12.38;;;10.93;;
58926;SDS011;44712;52.530;9.760;2022-09-24T03:43:38;12.60;;;11.30;;
58926;SDS011;44712;52.530;9.760;2022-09-24T03:46:06;11.95;;;10.70;;
58926;SDS011;44712;52.530;9.760;2022-09-24T03:48:34;13.23;;;10.38;;
58926;SDS011;44712;52.530;9.760;2022-09-24T03:51:03;13.27;;;11.32;;
58926;SDS011;44712;52.530;9.760;2022-09-24T03:53:38;14.48;;;11.77;;
58926;SDS011;44712;52.530;9.760;2022-09-24T03:56:05;12.05;;;10.60;;
58926;SDS011;44712;52.530;9.760;2022-09-24T03:58:33;12.35;;;11.02;;
58926;SDS011;44712;52.530;9.760;2022-09-24T04:01:04;13.55;;;10.80;;
58926;SDS011;44712;52.530;9.760;2022-09-24T04:03:32;13.40;;;11.00;;
58926;SDS011;44712;52.530;9.760;2022-09-24T04:05:59;14.20;;;11.38;;
58926;SDS011;44712;52.530;9.760;2022-09-24T04:08:27;13.15;;;11.25;;
58926;SDS011;44712;52.530;9.760;2022-09-24T04:10:53;14.02;;;11.90;;
58926;SDS011;44712;52.530;9.760;2022-09-24T04:13:21;13.40;;;11.82;;
58926;SDS011;44712;52.530;9.760;2022-09-24T04:15:47;17.42;;;12.52;;
58926;SDS011;44712;52.530;9.760;2022-09-24T04:18:15;14.90;;;13.30;;
58926;SDS011;44712;52.530;9.760;2022-09-24T04:20:43;18.67;;;13.80;;
58926;SDS011;44712;52.530;9.760;2022-09-24T04:23:10;17.35;;;14.43;;
58926;SDS011;44712;52.530;9.760;2022-09-24T04:25:37;13.45;;;12.10;;
58926;SDS011;44712;52.530;9.760;2022-09-24T04:28:06;14.57;;;12.70;;
58926;SDS011;44712;52.530;9.760;2022-09-24T04:30:34;18.27;;;14.10;;
58926;SDS011;44712;52.530;9.760;2022-09-24T04:33:01;19.90;;;13.93;;
58926;SDS011;44712;52.530;9.760;2022-09-24T04:35:29;20.63;;;14.50;;
58926;SDS011;44712;52.530;9.760;2022-09-24T04:37:57;18.35;;;14.25;;
58926;SDS011;44712;52.530;9.760;2022-09-24T04:40:25;17.40;;;14.38;;
58926;SDS011;44712;52.530;9.760;2022-09-24T04:42:52;16.63;;;14.60;;
58926;SDS011;44712;52.530;9.760;2022-09-24T04:45:19;19.08;;;15.38;;
58926;SDS011;44712;52.530;9.760;2022-09-24T04:47:50;21.00;;;15.40;;
58926;SDS011;44712;52.530;9.760;2022-09-24T04:52:51;19.80;;;13.93;;
58926;SDS011;44712;52.530;9.760;2022-09-24T04:55:21;17.27;;;13.57;;
58926;SDS011;44712;52.530;9.760;2022-09-24T04:57:49;16.85;;;14.55;;
58926;SDS011;44712;52.530;9.760;2022-09-24T05:00:17;17.42;;;14.50;;
58926;SDS011;44712;52.530;9.760;2022-09-24T05:02:46;17.80;;;14.82;;
58926;SDS011;44712;52.530;9.760;2022-09-24T05:05:13;19.25;;;15.27;;
58926;SDS011;44712;52.530;9.760;2022-09-24T05:07:40;18.52;;;14.75;;
58926;SDS011;44712;52.530;9.760;2022-09-24T05:10:07;20.45;;;16.23;;
58926;SDS011;44712;52.530;9.760;2022-09-24T05:12:34;23.63;;;16.42;;
58926;SDS011;44712;52.530;9.760;2022-09-24T05:15:01;18.42;;;15.23;;
58926;SDS011;44712;52.530;9.760;2022-09-24T05:17:29;20.25;;;16.48;;
58926;SDS011;44712;52.530;9.760;2022-09-24T05:19:56;21.88;;;15.23;;
58926;SDS011;44712;52.530;9.760;2022-09-24T05:22:24;21.15;;;16.00;;
58926;SDS011;44712;52.530;9.760;2022-09-24T05:24:53;21.65;;;16.10;;
58926;SDS011;44712;52.530;9.760;2022-09-24T05:27:19;19.25;;;15.82;;
58926;SDS011;44712;52.530;9.760;2022-09-24T05:29:49;26.17;;;17.10;;
58926;SDS011;44712;52.530;9.760;2022-09-24T05:32:17;20.27;;;15.40;;
58926;SDS011;44712;52.530;9.760;2022-09-24T05:34:45;21.35;;;15.73;;
58926;SDS011;44712;52.530;9.760;2022-09-24T05:37:12;20.63;;;14.82;;
58926;SDS011;44712;52.530;9.760;2022-09-24T05:39:40;22.00;;;16.25;;
58926;SDS011;44712;52.530;9.760;2022-09-24T05:42:08;18.92;;;14.57;;
58926;SDS011;44712;52.530;9.760;2022-09-24T05:44:35;18.52;;;15.13;;
58926;SDS011;44712;52.530;9.760;2022-09-24T05:47:03;20.35;;;16.63;;
58926;SDS011;44712;52.530;9.760;2022-09-24T05:49:29;22.38;;;15.90;;
58926;SDS011;44712;52.530;9.760;2022-09-24T05:51:57;20.52;;;16.30;;
58926;SDS011;44712;52.530;9.760;2022-09-24T05:54:24;21.17;;;16.17;;
58926;SDS011;44712;52.530;9.760;2022-09-24T05:56:50;23.05;;;16.20;;
58926;SDS011;44712;52.530;9.760;2022-09-24T05:59:17;21.50;;;17.23;;
58926;SDS011;44712;52.530;9.760;2022-09-24T06:01:43;19.90;;;16.55;;
58926;SDS011;44712;52.530;9.760;2022-09-24T06:04:11;21.80;;;16.58;;
58926;SDS011;44712;52.530;9.760;2022-09-24T06:06:38;20.63;;;16.20;;
58926;SDS011;44712;52.530;9.760;2022-09-24T06:09:04;19.58;;;16.10;;
58926;SDS011;44712;52.530;9.760;2022-09-24T06:11:34;23.02;;;17.40;;
58926;SDS011;44712;52.530;9.760;2022-09-24T06:14:06;22.05;;;17.17;;
58926;SDS011;44712;52.530;9.760;2022-09-24T06:16:34;20.42;;;16.70;;
58926;SDS011;44712;52.530;9.760;2022-09-24T06:19:01;19.98;;;16.20;;
58926;SDS011;44712;52.530;9.760;2022-09-24T06:21:28;21.58;;;17.23;;
58926;SDS011;44712;52.530;9.760;2022-09-24T06:23:55;23.33;;;17.35;;
58926;SDS011;44712;52.530;9.760;2022-09-24T06:26:21;23.27;;;17.20;;
58926;SDS011;44712;52.530;9.760;2022-09-24T06:28:48;21.52;;;17.30;;
58926;SDS011;44712;52.530;9.760;2022-09-24T06:31:15;21.58;;;16.45;;
58926;SDS011;44712;52.530;9.760;2022-09-24T06:33:41;25.77;;;18.13;;
58926;SDS011;44712;52.530;9.760;2022-09-24T06:36:08;22.52;;;16.33;;
58926;SDS011;44712;52.530;9.760;2022-09-24T06:38:35;22.88;;;18.15;;
58926;SDS011;44712;52.530;9.760;2022-09-24T06:41:05;22.50;;;17.40;;
58926;SDS011;44712;52.530;9.760;2022-09-24T06:43:32;23.33;;;17.23;;
58926;SDS011;44712;52.530;9.760;2022-09-24T06:45:59;24.02;;;17.63;;
58926;SDS011;44712;52.530;9.760;2022-09-24T06:48:27;22.75;;;17.23;;
58926;SDS011;44712;52.530;9.760;2022-09-24T06:50:54;29.98;;;19.02;;
58926;SDS011;44712;52.530;9.760;2022-09-24T06:53:21;27.13;;;19.52;;
58926;SDS011;44712;52.530;9.760;2022-09-24T06:55:48;23.30;;;18.08;;
58926;SDS011;44712;52.530;9.760;2022-09-24T06:58:21;22.75;;;16.88;;
58926;SDS011;44712;52.530;9.760;2022-09-24T07:00:49;23.48;;;18.30;;
58926;SDS011;44712;52.530;9.760;2022-09-24T07:03:20;22.77;;;18.45;;
58926;SDS011;44712;52.530;9.760;2022-09-24T07:05:47;21.75;;;16.35;;
58926;SDS011;44712;52.530;9.760;2022-09-24T07:08:14;27.20;;;18.23;;
58926;SDS011;44712;52.530;9.760;2022-09-24T07:10:45;23.67;;;17.42;;
58926;SDS011;44712;52.530;9.760;2022-09-24T07:13:18;25.83;;;18.35;;
58926;SDS011;44712;52.530;9.760;2022-09-24T07:15:50;23.08;;;16.98;;
58926;SDS011;44712;52.530;9.760;2022-09-24T07:18:18;23.27;;;18.15;;
58926;SDS011;44712;52.530;9.760;2022-09-24T07:20:52;22.92;;;16.73;;
58926;SDS011;44712;52.530;9.760;2022-09-24T07:23:21;21.35;;;16.92;;
58926;SDS011;44712;52.530;9.760;2022-09-24T07:25:48;24.02;;;18.08;;
58926;SDS011;44712;52.530;9.760;2022-09-24T07:28:16;21.67;;;17.08;;
58926;SDS011;44712;52.530;9.760;2022-09-24T07:30:43;21.20;;;17.00;;
58926;SDS011;44712;52.530;9.760;2022-09-24T07:33:10;23.30;;;17.58;;
58926;SDS011;44712;52.530;9.760;2022-09-24T07:35:37;24.50;;;18.02;;
58926;SDS011;44712;52.530;9.760;2022-09-24T07:38:06;21.30;;;16.48;;
58926;SDS011;44712;52.530;9.760;2022-09-24T07:40:33;24.40;;;18.30;;
58926;SDS011;44712;52.530;9.760;2022-09-24T07:43:00;24.52;;;17.70;;
58926;SDS011;44712;52.530;9.760;2022-09-24T07:45:27;22.88;;;17.38;;
58926;SDS011;44712;52.530;9.760;2022-09-24T07:47:55;23.60;;;16.67;;
58926;SDS011;44712;52.530;9.760;2022-09-24T07:50:24;22.20;;;16.60;;
58926;SDS011;44712;52.530;9.760;2022-09-24T07:52:55;21.23;;;15.48;;
58926;SDS011;44712;52.530;9.760;2022-09-24T07:55:22;25.60;;;18.70;;
58926;SDS011;44712;52.530;9.760;2022-09-24T07:57:51;23.42;;;18.05;;
58926;SDS011;44712;52.530;9.760;2022-09-24T08:00:20;23.38;;;18.60;;
58926;SDS011;44712;52.530;9.760;2022-09-24T08:02:48;25.10;;;18.33;;
58926;SDS011;44712;52.530;9.760;2022-09-24T08:05:17;24.77;;;18.40;;
58926;SDS011;44712;52.530;9.760;2022-09-24T08:07:51;24.02;;;17.65;;
58926;SDS011;44712;52.530;9.760;2022-09-24T08:10:21;21.30;;;15.95;;
58926;SDS011;44712;52.530;9.760;2022-09-24T08:12:49;22.95;;;16.80;;
58926;SDS011;44712;52.530;9.760;2022-09-24T08:15:16;21.23;;;16.17;;
58926;SDS011;44712;52.530;9.760;2022-09-24T08:17:44;20.25;;;14.93;;
58926;SDS011;44712;52.530;9.760;2022-09-24T08:20:10;24.85;;;17.83;;
58926;SDS011;44712;52.530;9.760;2022-09-24T08:22:37;21.27;;;17.73;;
58926;SDS011;44712;52.530;9.760;2022-09-24T08:25:04;21.60;;;17.05;;
58926;SDS011;44712;52.530;9.760;2022-09-24T08:27:32;21.42;;;17.27;;
58926;SDS011;44712;52.530;9.760;2022-09-24T08:30:02;25.45;;;17.80;;
58926;SDS011;44712;52.530;9.760;2022-09-24T08:32:33;25.02;;;17.83;;
58926;SDS011;44712;52.530;9.760;2022-09-24T08:35:00;27.38;;;17.65;;
58926;SDS011;44712;52.530;9.760;2022-09-24T08:37:27;23.05;;;16.35;;
58926;SDS011;44712;52.530;9.760;2022-09-24T08:39:54;21.63;;;17.27;;
58926;SDS011;44712;52.530;9.760;2022-09-24T08:42:31;22.73;;;16.20;;
58926;SDS011;44712;52.530;9.760;2022-09-24T08:45:07;17.55;;;14.13;;
58926;SDS011;44712;52.530;9.760;2022-09-24T08:48:16;17.60;;;15.32;;
58926;SDS011;44712;52.530;9.760;2022-09-24T08:50:52;18.58;;;14.70;;
58926;SDS011;44712;52.530;9.760;2022-09-24T08:53:27;18.00;;;14.75;;
58926;SDS011;44712;52.530;9.760;2022-09-24T08:56:06;19.33;;;15.82;;
58926;SDS011;44712;52.530;9.760;2022-09-24T09:01:16;19.58;;;15.00;;
58926;SDS011;44712;52.530;9.760;2022-09-24T09:03:55;20.55;;;14.82;;
58926;SDS011;44712;52.530;9.760;2022-09-24T09:12:37;19.75;;;14.80;;
58926;SDS011;44712;52.530;9.760;2022-09-24T09:15:11;23.63;;;16.27;;
58926;SDS011;44712;52.530;9.760;2022-09-24T09:20:35;23.40;;;16.17;;
58926;SDS011;44712;52.530;9.760;2022-09-24T09:23:18;21.95;;;16.92;;
58926;SDS011;44712;52.530;9.760;2022-09-24T09:25:55;24.33;;;17.90;;
58926;SDS011;44712;52.530;9.760;2022-09-24T09:28:24;22.35;;;16.20;;
58926;SDS011;44712;52.530;9.760;2022-09-24T09:30:55;24.50;;;16.33;;
58926;SDS011;44712;52.530;9.760;2022-09-24T09:36:09;21.25;;;15.43;;
58926;SDS011;44712;52.530;9.760;2022-09-24T09:38:55;21.42;;;15.40;;
58926;SDS011;44712;52.530;9.760;2022-09-24T09:44:24;24.90;;;17.70;;
58926;SDS011;44712;52.530;9.760;2022-09-24T09:46:54;21.83;;;16.55;;
58926;SDS011;44712;52.530;9.760;2022-09-24T09:51:57;23.20;;;16.65;;
58926;SDS011;44712;52.530;9.760;2022-09-24T09:54:36;25.75;;;17.23;;
58926;SDS011;44712;52.530;9.760;2022-09-24T09:57:07;23.88;;;18.08;;
58926;SDS011;44712;52.530;9.760;2022-09-24T09:59:40;23.05;;;16.55;;
58926;SDS011;44712;52.530;9.760;2022-09-24T10:02:16;24.83;;;17.02;;
58926;SDS011;44712;52.530;9.760;2022-09-24T10:04:56;20.58;;;15.60;;
58926;SDS011;44712;52.530;9.760;2022-09-24T10:07:24;26.40;;;17.15;;
58926;SDS011;44712;52.530;9.760;2022-09-24T10:10:26;25.88;;;17.90;;
58926;SDS011;44712;52.530;9.760;2022-09-24T10:12:53;23.17;;;16.60;;
58926;SDS011;44712;52.530;9.760;2022-09-24T10:15:32;23.77;;;17.55;;
58926;SDS011;44712;52.530;9.760;2022-09-24T10:17:58;25.58;;;17.75;;
58926;SDS011;44712;52.530;9.760;2022-09-24T10:20:28;25.60;;;18.85;;
58926;SDS011;44712;52.530;9.760;2022-09-24T10:28:05;24.42;;;16.77;;
58926;SDS011;44712;52.530;9.760;2022-09-24T10:31:02;23.35;;;18.15;;
58926;SDS011;44712;52.530;9.760;2022-09-24T10:33:38;21.17;;;16.85;;
58926;SDS011;44712;52.530;9.760;2022-09-24T10:36:27;24.25;;;17.42;;
58926;SDS011;44712;52.530;9.760;2022-09-24T10:39:10;22.38;;;16.90;;
58926;SDS011;44712;52.530;9.760;2022-09-24T10:44:13;24.05;;;17.17;;
58926;SDS011;44712;52.530;9.760;2022-09-24T10:49:30;23.92;;;17.30;;
58926;SDS011;44712;52.530;9.760;2022-09-24T10:57:49;24.42;;;17.63;;
58926;SDS011;44712;52.530;9.760;2022-09-24T11:00:31;22.90;;;16.23;;
58926;SDS011;44712;52.530;9.760;2022-09-24T11:03:07;22.85;;;16.40;;
58926;SDS011;44712;52.530;9.760;2022-09-24T11:19:16;20.35;;;14.60;;
58926;SDS011;44712;52.530;9.760;2022-09-24T11:22:16;21.58;;;15.63;;
58926;SDS011;44712;52.530;9.760;2022-09-24T11:36:58;14.18;;;9.88;;
58926;SDS011;44712;52.530;9.760;2022-09-24T11:39:33;14.07;;;9.98;;
58926;SDS011;44712;52.530;9.760;2022-09-24T11:42:20;15.15;;;10.77;;
58926;SDS011;44712;52.530;9.760;2022-09-24T11:45:03;13.15;;;9.13;;
58926;SDS011;44712;52.530;9.760;2022-09-24T11:53:04;14.40;;;10.68;;
58926;SDS011;44712;52.530;9.760;2022-09-24T11:55:42;15.02;;;10.32;;
58926;SDS011;44712;52.530;9.760;2022-09-24T11:58:31;15.52;;;10.90;;
58926;SDS011;44712;52.530;9.760;2022-09-24T12:01:26;15.13;;;10.45;;
58926;SDS011;44712;52.530;9.760;2022-09-24T12:06:52;16.10;;;10.85;;
58926;SDS011;44712;52.530;9.760;2022-09-24T12:09:27;13.52;;;10.23;;
58926;SDS011;44712;52.530;9.760;2022-09-24T12:12:09;14.65;;;10.27;;
58926;SDS011;44712;52.530;9.760;2022-09-24T12:14:49;13.43;;;11.10;;
58926;SDS011;44712;52.530;9.760;2022-09-24T12:20:19;15.15;;;10.88;;
58926;SDS011;44712;52.530;9.760;2022-09-24T12:22:51;14.55;;;9.63;;
58926;SDS011;44712;52.530;9.760;2022-09-24T12:25:26;13.68;;;9.73;;
58926;SDS011;44712;52.530;9.760;2022-09-24T12:27:57;15.05;;;10.15;;
58926;SDS011;44712;52.530;9.760;2022-09-24T12:30:40;14.70;;;10.65;;
58926;SDS011;44712;52.530;9.760;2022-09-24T12:33:42;14.70;;;10.23;;
58926;SDS011;44712;52.530;9.760;2022-09-24T12:36:21;15.02;;;9.57;;
58926;SDS011;44712;52.530;9.760;2022-09-24T12:39:01;13.95;;;9.80;;
58926;SDS011;44712;52.530;9.760;2022-09-24T12:41:31;14.60;;;10.05;;
58926;SDS011;44712;52.530;9.760;2022-09-24T12:44:13;15.60;;;10.27;;
58926;SDS011;44712;52.530;9.760;2022-09-24T12:46:52;14.93;;;9.93;;
58926;SDS011;44712;52.530;9.760;2022-09-24T12:51:51;11.18;;;8.90;;
58926;SDS011;44712;52.530;9.760;2022-09-24T12:59:52;14.80;;;9.68;;
58926;SDS011;44712;52.530;9.760;2022-09-24T13:04:50;12.07;;;8.80;;
58926;SDS011;44712;52.530;9.760;2022-09-24T13:07:31;13.77;;;8.90;;
58926;SDS011;44712;52.530;9.760;2022-09-24T13:12:41;11.35;;;8.43;;
58926;SDS011;44712;52.530;9.760;2022-09-24T13:15:22;11.23;;;7.90;;
58926;SDS011;44712;52.530;9.760;2022-09-24T13:18:17;15.48;;;9.95;;
58926;SDS011;44712;52.530;9.760;2022-09-24T13:21:04;14.35;;;9.85;;
58926;SDS011;44712;52.530;9.760;2022-09-24T13:26:05;12.93;;;9.02;;
58926;SDS011;44712;52.530;9.760;2022-09-24T13:28:37;14.70;;;9.20;;
58926;SDS011;44712;52.530;9.760;2022-09-24T13:33:53;14.60;;;9.93;;
58926;SDS011;44712;52.530;9.760;2022-09-24T13:39:28;12.30;;;8.95;;
58926;SDS011;44712;52.530;9.760;2022-09-24T13:45:10;12.98;;;9.23;;
58926;SDS011;44712;52.530;9.760;2022-09-24T13:47:43;15.15;;;10.30;;
58926;SDS011;44712;52.530;9.760;2022-09-24T13:50:28;15.82;;;10.52;;
58926;SDS011;44712;52.530;9.760;2022-09-24T13:53:02;13.43;;;9.43;;
58926;SDS011;44712;52.530;9.760;2022-09-24T13:58:31;14.93;;;9.77;;
58926;SDS011;44712;52.530;9.760;2022-09-24T14:01:03;14.13;;;9.57;;
58926;SDS011;44712;52.530;9.760;2022-09-24T14:03:38;12.48;;;9.13;;
58926;SDS011;44712;52.530;9.760;2022-09-24T14:06:10;15.52;;;9.73;;
58926;SDS011;44712;52.530;9.760;2022-09-24T14:08:42;14.75;;;10.25;;
58926;SDS011;44712;52.530;9.760;2022-09-24T14:11:15;13.40;;;9.52;;
58926;SDS011;44712;52.530;9.760;2022-09-24T14:13:45;13.90;;;9.88;;
58926;SDS011;44712;52.530;9.760;2022-09-24T14:16:22;13.45;;;9.82;;
58926;SDS011;44712;52.530;9.760;2022-09-24T14:19:00;13.95;;;10.32;;
58926;SDS011;44712;52.530;9.760;2022-09-24T14:21:32;13.77;;;10.40;;
58926;SDS011;44712;52.530;9.760;2022-09-24T14:29:18;14.87;;;10.57;;
58926;SDS011;44712;52.530;9.760;2022-09-24T14:32:38;14.77;;;11.23;;
58926;SDS011;44712;52.530;9.760;2022-09-24T14:34:54;16.27;;;11.30;;
58926;SDS011;44712;52.530;9.760;2022-09-24T14:37:25;13.82;;;10.68;;
58926;SDS011;44712;52.530;9.760;2022-09-24T14:40:02;17.10;;;11.40;;
58926;SDS011;44712;52.530;9.760;2022-09-24T14:42:43;16.05;;;11.40;;
58926;SDS011;44712;52.530;9.760;2022-09-24T14:45:19;16.60;;;11.32;;
58926;SDS011;44712;52.530;9.760;2022-09-24T14:47:58;15.98;;;11.55;;
58926;SDS011;44712;52.530;9.760;2022-09-24T14:50:41;17.48;;;12.57;;
58926;SDS011;44712;52.530;9.760;2022-09-24T14:53:55;16.52;;;11.52;;
58926;SDS011;44712;52.530;9.760;2022-09-24T14:58:45;17.85;;;13.23;;
58926;SDS011;44712;52.530;9.760;2022-09-24T15:01:16;15.32;;;11.70;;
58926;SDS011;44712;52.530;9.760;2022-09-24T15:11:26;14.38;;;11.95;;
58926;SDS011;44712;52.530;9.760;2022-09-24T15:13:56;21.88;;;14.60;;
58926;SDS011;44712;52.530;9.760;2022-09-24T15:16:30;18.13;;;12.32;;
58926;SDS011;44712;52.530;9.760;2022-09-24T15:21:32;18.38;;;12.68;;
58926;SDS011;44712;52.530;9.760;2022-09-24T15:23:59;14.27;;;10.32;;
58926;SDS011;44712;52.530;9.760;2022-09-24T15:26:30;18.23;;;12.63;;
58926;SDS011;44712;52.530;9.760;2022-09-24T15:29:01;17.83;;;11.45;;
58926;SDS011;44712;52.530;9.760;2022-09-24T15:31:30;17.70;;;12.27;;
58926;SDS011;44712;52.530;9.760;2022-09-24T15:33:57;13.75;;;10.13;;
58926;SDS011;44712;52.530;9.760;2022-09-24T15:36:24;15.40;;;10.15;;
58926;SDS011;44712;52.530;9.760;2022-09-24T15:38:51;14.27;;;10.32;;
58926;SDS011;44712;52.530;9.760;2022-09-24T15:41:26;15.80;;;11.93;;
58926;SDS011;44712;52.530;9.760;2022-09-24T15:43:56;15.65;;;11.55;;
58926;SDS011;44712;52.530;9.760;2022-09-24T15:46:24;17.40;;;11.98;;
58926;SDS011;44712;52.530;9.760;2022-09-24T15:48:51;18.08;;;12.32;;
58926;SDS011;44712;52.530;9.760;2022-09-24T15:51:19;16.52;;;11.30;;
58926;SDS011;44712;52.530;9.760;2022-09-24T15:53:49;16.02;;;11.63;;
58926;SDS011;44712;52.530;9.760;2022-09-24T15:56:16;18.15;;;12.35;;
58926;SDS011;44712;52.530;9.760;2022-09-24T15:58:42;15.93;;;11.35;;
58926;SDS011;44712;52.530;9.760;2022-09-24T16:01:12;15.90;;;11.18;;
58926;SDS011;44712;52.530;9.760;2022-09-24T16:03:45;15.48;;;11.82;;
58926;SDS011;44712;52.530;9.760;2022-09-24T16:06:12;17.23;;;12.10;;
58926;SDS011;44712;52.530;9.760;2022-09-24T16:08:39;20.63;;;14.20;;
58926;SDS011;44712;52.530;9.760;2022-09-24T16:11:07;18.70;;;13.30;;
58926;SDS011;44712;52.530;9.760;2022-09-24T16:13:34;19.15;;;13.65;;
58926;SDS011;44712;52.530;9.760;2022-09-24T16:16:04;18.83;;;12.88;;
58926;SDS011;44712;52.530;9.760;2022-09-24T16:18:32;21.23;;;14.32;;
58926;SDS011;44712;52.530;9.760;2022-09-24T16:20:59;18.55;;;12.77;;
58926;SDS011;44712;52.530;9.760;2022-09-24T16:23:30;17.33;;;12.32;;
58926;SDS011;44712;52.530;9.760;2022-09-24T16:25:57;19.25;;;14.32;;
58926;SDS011;44712;52.530;9.760;2022-09-24T16:28:25;19.13;;;13.75;;
58926;SDS011;44712;52.530;9.760;2022-09-24T16:30:53;20.83;;;13.93;;
58926;SDS011;44712;52.530;9.760;2022-09-24T16:33:20;20.23;;;13.75;;
58926;SDS011;44712;52.530;9.760;2022-09-24T16:35:47;21.17;;;15.52;;
58926;SDS011;44712;52.530;9.760;2022-09-24T16:38:14;19.10;;;13.80;;
58926;SDS011;44712;52.530;9.760;2022-09-24T16:40:48;19.65;;;14.63;;
58926;SDS011;44712;52.530;9.760;2022-09-24T16:43:14;20.83;;;14.80;;
58926;SDS011;44712;52.530;9.760;2022-09-24T16:45:41;21.77;;;15.10;;
58926;SDS011;44712;52.530;9.760;2022-09-24T16:48:09;22.30;;;14.98;;
58926;SDS011;44712;52.530;9.760;2022-09-24T16:50:37;21.33;;;14.35;;
58926;SDS011;44712;52.530;9.760;2022-09-24T16:53:04;24.05;;;15.55;;
58926;SDS011;44712;52.530;9.760;2022-09-24T16:55:31;24.75;;;16.75;;
58926;SDS011;44712;52.530;9.760;2022-09-24T16:57:58;23.55;;;16.95;;
58926;SDS011;44712;52.530;9.760;2022-09-24T17:00:25;27.48;;;19.35;;
58926;SDS011;44712;52.530;9.760;2022-09-24T17:02:52;27.05;;;18.98;;
58926;SDS011;44712;52.530;9.760;2022-09-24T17:05:18;28.58;;;19.23;;
58926;SDS011;44712;52.530;9.760;2022-09-24T17:07:45;25.50;;;19.33;;
58926;SDS011;44712;52.530;9.760;2022-09-24T17:10:12;27.25;;;19.67;;
58926;SDS011;44712;52.530;9.760;2022-09-24T17:12:40;27.02;;;18.77;;